Time;durP1;ratioP1;P1;durP2;ratioP2;P2;SDS_P1;SDS_P2;PMS_P1;PMS_P2;Temp;Humidity;BMP_temperature;BMP_pressure;BME280_temperature;BME280_humidity;BME280_pressure;Samples;Min_cycle;Max_cycle;Signal;HPM_P1;HPM_P2
2023/06/19 00:00:12;;;;;;;5.45;4.65;;;23.00;80.40;;;;;;5064334;28;20146;-83
2023/06/19 00:02:42;;;;;;;6.78;4.35;;;23.00;80.50;;;;;;5076507;28;20478;-85
2023/06/19 00:05:09;;;;;;;7.82;5.30;;;22.90;80.70;;;;;;5073737;28;20673;-84
2023/06/19 00:07:38;;;;;;;4.93;4.13;;;22.90;80.80;;;;;;5075646;28;20028;-83
2023/06/19 00:10:05;;;;;;;5.43;4.22;;;22.90;80.90;;;;;;5060810;28;20123;-83
2023/06/19 00:12:30;;;;;;;4.60;3.88;;;22.90;81.00;;;;;;5065463;28;20024;-84
2023/06/19 00:14:56;;;;;;;5.22;4.10;;;22.90;81.20;;;;;;5074825;28;20371;-84
2023/06/19 00:17:22;;;;;;;4.20;3.75;;;22.90;81.30;;;;;;5076641;28;20024;-85
2023/06/19 00:19:48;;;;;;;4.00;3.28;;;22.90;81.50;;;;;;5075980;28;20051;-84
2023/06/19 00:22:14;;;;;;;6.20;4.63;;;22.90;81.50;;;;;;5075525;28;20031;-84
2023/06/19 00:24:40;;;;;;;6.05;4.50;;;22.80;81.80;;;;;;5077628;28;20024;-85
2023/06/19 00:27:06;;;;;;;4.90;4.22;;;22.80;82.30;;;;;;5067758;28;20078;-83
2023/06/19 00:29:32;;;;;;;4.57;3.60;;;22.90;82.40;;;;;;5073528;28;20060;-85
2023/06/19 00:31:59;;;;;;;4.90;4.22;;;22.80;82.40;;;;;;5074948;28;20474;-84
2023/06/19 00:34:25;;;;;;;5.97;4.05;;;22.90;82.60;;;;;;5075970;28;20024;-82
2023/06/19 00:36:57;;;;;;;6.28;3.78;;;22.90;82.60;;;;;;5075213;28;20025;-84
2023/06/19 00:39:23;;;;;;;4.75;4.03;;;23.00;82.80;;;;;;5076078;28;20077;-84
2023/06/19 00:41:52;;;;;;;5.60;4.30;;;22.90;82.90;;;;;;5060023;28;20020;-84
2023/06/19 00:44:17;;;;;;;7.53;4.07;;;23.00;83.40;;;;;;5064158;28;20574;-83
2023/06/19 00:46:43;;;;;;;5.28;4.25;;;22.90;83.40;;;;;;5076540;28;21339;-84
2023/06/19 00:49:08;;;;;;;5.90;4.75;;;22.90;83.70;;;;;;5075641;28;20075;-86
2023/06/19 00:51:34;;;;;;;5.55;4.80;;;22.90;84.10;;;;;;5076729;28;20066;-84
2023/06/19 00:54:00;;;;;;;5.18;4.57;;;22.90;84.20;;;;;;5075091;28;20665;-84
2023/06/19 00:56:26;;;;;;;5.75;4.18;;;22.90;84.30;;;;;;5074708;28;20801;-84
2023/06/19 00:58:53;;;;;;;5.10;4.18;;;22.90;84.40;;;;;;5075293;28;20027;-84
2023/06/19 01:01:21;;;;;;;7.20;4.90;;;22.90;84.40;;;;;;5076432;28;20467;-85
2023/06/19 01:03:47;;;;;;;5.72;4.55;;;22.90;84.70;;;;;;5075728;28;20028;-86
2023/06/19 01:06:17;;;;;;;6.60;4.55;;;22.90;84.50;;;;;;5066739;28;20034;-86
2023/06/19 01:08:53;;;;;;;5.13;3.92;;;22.90;84.40;;;;;;5078662;28;20025;-85
2023/06/19 01:11:23;;;;;;;5.50;4.20;;;22.90;84.30;;;;;;5065270;28;20511;-84
2023/06/19 01:13:55;;;;;;;5.25;4.10;;;22.90;84.40;;;;;;5061425;28;20032;-84
2023/06/19 01:16:22;;;;;;;4.97;4.05;;;22.90;84.30;;;;;;5075177;28;20055;-85
2023/06/19 01:18:48;;;;;;;5.03;3.72;;;22.90;84.50;;;;;;5074527;28;20021;-84
2023/06/19 01:21:16;;;;;;;4.88;3.95;;;22.90;84.40;;;;;;5060636;28;20036;-86
2023/06/19 01:23:42;;;;;;;5.32;3.92;;;22.90;84.50;;;;;;5076439;28;20036;-83
2023/06/19 01:26:08;;;;;;;5.90;4.22;;;22.80;84.50;;;;;;5064686;28;20694;-85
2023/06/19 01:28:37;;;;;;;5.38;4.00;;;22.80;84.80;;;;;;5074036;28;20067;-84
2023/06/19 01:31:10;;;;;;;5.65;4.20;;;22.80;85.30;;;;;;5065089;28;20036;-85
2023/06/19 01:33:37;;;;;;;5.55;3.97;;;22.70;84.90;;;;;;5074691;28;20032;-85
2023/06/19 01:36:04;;;;;;;5.47;3.80;;;22.70;85.10;;;;;;5064451;28;20023;-85
2023/06/19 01:38:31;;;;;;;5.30;4.00;;;22.60;85.30;;;;;;5065697;28;20043;-86
2023/06/19 01:40:59;;;;;;;5.57;3.53;;;22.50;85.60;;;;;;5064435;28;20070;-82
2023/06/19 01:43:25;;;;;;;7.85;3.80;;;22.50;85.70;;;;;;5073572;28;20016;-83
2023/06/19 01:45:52;;;;;;;4.72;3.90;;;22.40;86.10;;;;;;5063463;28;20112;-84
2023/06/19 01:48:17;;;;;;;5.30;4.00;;;22.30;86.10;;;;;;5064413;28;20024;-85
2023/06/19 01:50:47;;;;;;;5.50;3.63;;;22.30;86.40;;;;;;5063643;28;20050;-85
2023/06/19 01:53:13;;;;;;;5.10;3.53;;;22.20;86.60;;;;;;5076103;28;20541;-86
2023/06/19 01:55:39;;;;;;;4.53;3.40;;;22.10;86.60;;;;;;5058286;28;20053;-85
2023/06/19 01:58:04;;;;;;;5.55;3.67;;;22.10;86.80;;;;;;5073684;28;20110;-84
2023/06/19 02:00:32;;;;;;;5.28;3.53;;;22.00;87.40;;;;;;5059360;28;20359;-84
2023/06/19 02:02:57;;;;;;;4.47;3.20;;;22.00;87.50;;;;;;5073787;28;20024;-86
2023/06/19 02:05:23;;;;;;;4.32;3.20;;;21.90;88.30;;;;;;5076483;28;20607;-85
2023/06/19 02:07:48;;;;;;;4.68;3.47;;;21.80;87.80;;;;;;5064066;28;20583;-85
2023/06/19 02:10:14;;;;;;;4.82;3.30;;;21.80;87.90;;;;;;5065028;28;20540;-85
2023/06/19 02:12:39;;;;;;;5.00;3.45;;;21.80;88.10;;;;;;5059285;28;20497;-86
2023/06/19 02:15:06;;;;;;;7.07;3.58;;;21.70;88.70;;;;;;5073220;28;20101;-84
2023/06/19 02:17:31;;;;;;;4.07;3.03;;;21.70;88.80;;;;;;5072849;28;20024;-86
2023/06/19 02:19:57;;;;;;;4.50;3.28;;;21.60;88.80;;;;;;5074578;28;20112;-86
2023/06/19 02:22:23;;;;;;;7.75;3.42;;;21.60;89.30;;;;;;5075258;28;20149;-86
2023/06/19 02:24:49;;;;;;;5.68;3.38;;;21.50;89.60;;;;;;5065616;28;20030;-85
2023/06/19 02:27:15;;;;;;;5.10;3.38;;;21.50;90.30;;;;;;5063442;28;20028;-85
2023/06/19 02:29:41;;;;;;;5.00;2.95;;;21.40;90.50;;;;;;5074959;28;21953;-85
2023/06/19 02:32:07;;;;;;;4.25;2.50;;;21.30;90.40;;;;;;5062604;28;20570;-85
2023/06/19 02:34:33;;;;;;;4.95;3.00;;;21.30;90.40;;;;;;5075153;28;20115;-85
2023/06/19 02:36:59;;;;;;;4.57;3.28;;;21.20;90.60;;;;;;5074938;28;20508;-84
2023/06/19 02:39:24;;;;;;;6.03;3.33;;;21.20;90.70;;;;;;5073612;28;20036;-84
2023/06/19 02:41:50;;;;;;;4.13;2.85;;;21.10;90.80;;;;;;5074343;28;20107;-86
2023/06/19 02:44:16;;;;;;;4.90;3.20;;;21.00;90.90;;;;;;5074843;28;20108;-83
2023/06/19 02:46:41;;;;;;;4.80;3.10;;;21.00;91.10;;;;;;5074348;28;20031;-85
2023/06/19 02:49:07;;;;;;;4.18;2.85;;;20.90;91.10;;;;;;5064449;28;20051;-84
2023/06/19 02:51:32;;;;;;;3.67;2.72;;;20.90;91.10;;;;;;5065810;28;20036;-86
2023/06/19 02:53:58;;;;;;;5.40;2.92;;;20.80;91.30;;;;;;5063379;28;20032;-86
2023/06/19 02:56:28;;;;;;;4.80;2.65;;;20.70;91.40;;;;;;5074469;28;20665;-85
2023/06/19 02:58:54;;;;;;;4.10;2.47;;;20.70;91.70;;;;;;5057673;28;20027;-85
2023/06/19 03:01:19;;;;;;;3.20;2.08;;;20.70;91.70;;;;;;5074119;28;20028;-85
2023/06/19 03:03:46;;;;;;;3.17;2.08;;;20.70;91.70;;;;;;5074685;28;20032;-85
2023/06/19 03:06:13;;;;;;;2.92;2.08;;;20.60;91.80;;;;;;5076535;28;20026;-85
2023/06/19 03:08:39;;;;;;;3.28;1.88;;;20.60;92.10;;;;;;5063707;28;20113;-83
2023/06/19 03:11:05;;;;;;;2.95;1.70;;;20.60;92.30;;;;;;5073063;28;20699;-85
2023/06/19 03:13:53;;;;;;;2.75;1.70;;;20.60;92.50;;;;;;5073292;28;20024;-86
2023/06/19 03:16:19;;;;;;;4.30;1.90;;;20.60;92.60;;;;;;5059662;28;20438;-86
2023/06/19 03:18:45;;;;;;;2.53;1.60;;;20.60;92.60;;;;;;5073186;28;20024;-85
2023/06/19 03:21:12;;;;;;;2.70;1.50;;;20.50;92.60;;;;;;5074018;28;20025;-85
2023/06/19 03:23:37;;;;;;;3.65;1.90;;;20.50;92.60;;;;;;5072859;28;20040;-86
2023/06/19 03:26:03;;;;;;;3.28;1.85;;;20.50;92.70;;;;;;5072657;28;20032;-84
2023/06/19 03:28:29;;;;;;;3.13;1.80;;;20.50;92.90;;;;;;5057831;28;20036;-85
2023/06/19 03:30:54;;;;;;;2.50;1.70;;;20.40;92.90;;;;;;5072536;28;20044;-85
2023/06/19 03:33:20;;;;;;;2.58;1.48;;;20.40;92.80;;;;;;5055252;28;20035;-85
2023/06/19 03:35:46;;;;;;;1.95;1.35;;;20.40;92.90;;;;;;5074346;28;20035;-84
2023/06/19 03:38:11;;;;;;;1.95;1.38;;;20.40;92.90;;;;;;5073856;28;20052;-84
2023/06/19 03:40:37;;;;;;;2.03;1.15;;;20.30;92.90;;;;;;5057967;28;20036;-86
2023/06/19 03:43:02;;;;;;;2.95;1.65;;;20.40;92.90;;;;;;5058515;28;20055;-87
2023/06/19 03:45:28;;;;;;;1.83;1.17;;;20.40;92.90;;;;;;5072690;28;20032;-85
2023/06/19 03:47:53;;;;;;;2.67;1.30;;;20.50;92.90;;;;;;5073574;28;20497;-85
2023/06/19 03:50:19;;;;;;;3.08;1.30;;;20.50;92.80;;;;;;5059196;28;20016;-86
2023/06/19 03:52:45;;;;;;;1.95;1.27;;;20.60;92.80;;;;;;5059519;28;20619;-87
2023/06/19 03:55:11;;;;;;;3.13;1.55;;;20.60;92.80;;;;;;5055929;28;20417;-86
2023/06/19 03:57:36;;;;;;;1.88;1.20;;;20.70;92.80;;;;;;5062285;28;20047;-85
2023/06/19 04:00:07;;;;;;;3.58;1.65;;;20.70;92.80;;;;;;5072743;28;20039;-85
2023/06/19 04:02:33;;;;;;;4.28;1.55;;;20.70;92.90;;;;;;5058293;28;20508;-85
2023/06/19 04:04:58;;;;;;;3.00;1.92;;;20.70;92.90;;;;;;5063222;28;20128;-88
2023/06/19 04:07:24;;;;;;;2.97;1.77;;;20.80;93.00;;;;;;5073073;28;20020;-84
2023/06/19 04:09:50;;;;;;;2.50;1.48;;;20.70;93.00;;;;;;5071206;28;20494;-85
2023/06/19 04:12:15;;;;;;;2.25;1.50;;;20.70;93.10;;;;;;5055799;28;20035;-86
2023/06/19 04:14:41;;;;;;;2.38;1.60;;;20.70;93.10;;;;;;5057743;28;22409;-85
2023/06/19 04:17:06;;;;;;;3.20;1.80;;;20.80;93.30;;;;;;5056530;28;20051;-86
2023/06/19 04:19:32;;;;;;;2.83;1.98;;;20.70;93.40;;;;;;5058511;28;20627;-86
2023/06/19 04:21:57;;;;;;;2.83;1.60;;;20.70;93.60;;;;;;5058345;28;20024;-84
2023/06/19 04:24:23;;;;;;;2.08;1.40;;;20.70;93.60;;;;;;5073034;28;20059;-86
2023/06/19 04:26:48;;;;;;;3.47;2.03;;;20.70;93.60;;;;;;5071913;28;20124;-82
2023/06/19 04:29:16;;;;;;;2.38;1.60;;;20.70;93.90;;;;;;5061493;28;20479;-85
2023/06/19 04:31:48;;;;;;;2.83;1.88;;;20.70;93.90;;;;;;5059969;28;20047;-88
2023/06/19 04:34:16;;;;;;;2.78;1.50;;;20.70;94.00;;;;;;5076634;28;20028;-87
2023/06/19 04:36:42;;;;;;;2.35;1.70;;;20.70;94.00;;;;;;5078113;28;20554;-86
2023/06/19 04:39:08;;;;;;;2.25;1.60;;;20.80;94.00;;;;;;5062066;28;20024;-85
2023/06/19 04:41:33;;;;;;;2.40;1.63;;;20.80;94.00;;;;;;5062459;28;20049;-83
2023/06/19 04:44:00;;;;;;;2.50;1.60;;;20.80;94.10;;;;;;5076304;28;20040;-81
2023/06/19 04:46:25;;;;;;;2.60;1.65;;;20.80;94.20;;;;;;5075710;28;20020;-85
2023/06/19 04:48:51;;;;;;;3.40;1.88;;;20.80;94.20;;;;;;5059127;28;20117;-86
2023/06/19 04:51:20;;;;;;;2.60;1.98;;;20.80;94.30;;;;;;5062149;28;20044;-86
2023/06/19 04:53:49;;;;;;;2.90;2.00;;;20.80;94.40;;;;;;5056352;28;20019;-84
2023/06/19 04:56:15;;;;;;;2.50;1.90;;;20.70;94.50;;;;;;5057117;28;20478;-87
2023/06/19 04:58:46;;;;;;;2.72;1.77;;;20.70;94.70;;;;;;5063577;28;20035;-88
2023/06/19 05:01:15;;;;;;;3.08;2.10;;;20.70;94.70;;;;;;5057198;28;20025;-88
2023/06/19 05:03:42;;;;;;;3.45;2.50;;;20.70;94.90;;;;;;5056819;28;20028;-87
2023/06/19 05:06:08;;;;;;;3.40;2.65;;;20.70;95.10;;;;;;5072732;28;20070;-85
2023/06/19 05:08:34;;;;;;;2.88;2.10;;;20.70;95.30;;;;;;5056688;28;20143;-84
2023/06/19 05:11:00;;;;;;;3.20;2.47;;;20.70;95.50;;;;;;5056940;28;20039;-85
2023/06/19 05:13:25;;;;;;;4.18;2.97;;;20.60;95.60;;;;;;5057569;28;20042;-86
2023/06/19 05:15:51;;;;;;;4.38;2.70;;;20.60;95.70;;;;;;5071484;28;20043;-85
2023/06/19 05:18:17;;;;;;;3.40;2.40;;;20.50;96.00;;;;;;5057346;28;20024;-86
2023/06/19 05:20:43;;;;;;;4.15;2.58;;;20.50;96.00;;;;;;5072832;28;20085;-85
2023/06/19 05:23:09;;;;;;;4.20;2.88;;;20.40;96.20;;;;;;5072940;28;20052;-87
2023/06/19 05:25:34;;;;;;;3.35;2.20;;;20.40;96.20;;;;;;5060529;28;20477;-83
2023/06/19 05:28:00;;;;;;;3.35;2.35;;;20.40;96.30;;;;;;5071348;28;20034;-85
2023/06/19 05:30:25;;;;;;;3.78;2.95;;;20.30;96.30;;;;;;5072196;28;20059;-86
2023/06/19 05:32:51;;;;;;;4.93;3.60;;;20.20;96.60;;;;;;5063202;28;20020;-83
2023/06/19 05:35:17;;;;;;;4.85;2.40;;;20.20;97.20;;;;;;5073956;28;20724;-84
2023/06/19 05:37:45;;;;;;;5.18;2.92;;;20.20;97.20;;;;;;5072486;28;20089;-85
2023/06/19 05:40:11;;;;;;;3.58;2.40;;;20.30;97.30;;;;;;5073331;28;20035;-84
2023/06/19 05:42:37;;;;;;;2.88;2.10;;;20.40;97.20;;;;;;5053909;28;20410;-84
2023/06/19 05:45:03;;;;;;;4.07;2.35;;;20.50;97.00;;;;;;5061838;28;20035;-82
2023/06/19 05:47:30;;;;;;;3.65;2.60;;;20.60;97.00;;;;;;5056865;28;20062;-83
2023/06/19 05:49:56;;;;;;;2.83;2.25;;;20.70;97.00;;;;;;5057371;28;20036;-83
2023/06/19 05:52:22;;;;;;;3.88;2.67;;;20.80;96.90;;;;;;5061813;28;20042;-85
2023/06/19 05:54:48;;;;;;;3.53;2.67;;;20.80;96.80;;;;;;5054403;28;20028;-84
2023/06/19 05:57:15;;;;;;;4.13;3.03;;;20.90;96.80;;;;;;5071795;28;20075;-85
2023/06/19 05:59:42;;;;;;;4.43;2.90;;;21.00;96.80;;;;;;5056560;28;20020;-86
2023/06/19 06:02:07;;;;;;;3.90;2.78;;;21.00;96.80;;;;;;5056556;28;20028;-85
2023/06/19 06:04:34;;;;;;;3.92;2.60;;;21.00;96.80;;;;;;5059917;28;20375;-85
2023/06/19 06:07:00;;;;;;;6.00;2.92;;;21.00;96.70;;;;;;5056657;28;20035;-83
2023/06/19 06:09:26;;;;;;;4.80;3.25;;;21.00;96.80;;;;;;5065170;28;20032;-85
2023/06/19 06:11:52;;;;;;;5.15;3.10;;;21.00;96.90;;;;;;5060541;28;20039;-85
2023/06/19 06:14:18;;;;;;;3.90;2.90;;;21.00;96.90;;;;;;5057073;28;20016;-84
2023/06/19 06:16:43;;;;;;;4.45;3.13;;;21.10;96.80;;;;;;5061614;28;20024;-84
2023/06/19 06:19:09;;;;;;;5.63;3.58;;;21.10;96.80;;;;;;5057364;28;20517;-84
2023/06/19 06:21:34;;;;;;;4.38;2.70;;;21.10;96.80;;;;;;5072675;28;20047;-82
2023/06/19 06:24:00;;;;;;;4.35;3.35;;;21.10;96.90;;;;;;5060949;28;20367;-82
2023/06/19 06:26:27;;;;;;;5.47;3.97;;;21.00;96.90;;;;;;5072000;28;20061;-83
2023/06/19 06:28:53;;;;;;;5.32;4.32;;;21.00;97.10;;;;;;5055635;28;20039;-81
2023/06/19 06:31:19;;;;;;;5.38;4.00;;;21.00;97.30;;;;;;5068976;28;20541;-82
2023/06/19 06:33:44;;;;;;;6.25;3.65;;;20.90;97.30;;;;;;5072820;28;20066;-83
2023/06/19 06:36:10;;;;;;;6.20;4.28;;;20.90;97.40;;;;;;5072930;28;20113;-82
2023/06/19 06:38:36;;;;;;;5.35;4.20;;;20.90;97.60;;;;;;5073191;28;20531;-84
2023/06/19 06:41:02;;;;;;;5.95;4.22;;;20.80;97.80;;;;;;5064442;28;20024;-85
2023/06/19 06:43:27;;;;;;;4.28;3.40;;;20.70;97.90;;;;;;5057986;28;20733;-82
2023/06/19 06:45:53;;;;;;;6.70;4.47;;;20.80;97.90;;;;;;5073862;28;20036;-82
2023/06/19 06:48:19;;;;;;;3.92;3.10;;;20.80;98.00;;;;;;5072889;28;20031;-82
2023/06/19 06:50:44;;;;;;;4.30;3.33;;;20.80;97.90;;;;;;5073448;28;20031;-83
2023/06/19 06:53:10;;;;;;;5.05;3.92;;;20.80;97.90;;;;;;5056553;28;20028;-81
2023/06/19 06:55:35;;;;;;;5.82;3.88;;;20.80;98.00;;;;;;5071450;28;20032;-82
2023/06/19 06:58:01;;;;;;;3.85;3.00;;;20.90;98.00;;;;;;5072892;28;20545;-82
2023/06/19 07:00:27;;;;;;;4.20;3.38;;;20.90;97.90;;;;;;5073423;28;20573;-83
2023/06/19 07:02:53;;;;;;;4.53;3.40;;;20.90;97.90;;;;;;5071657;28;20115;-81
2023/06/19 07:05:18;;;;;;;5.15;3.53;;;21.00;97.80;;;;;;5073152;28;20119;-81
2023/06/19 07:07:44;;;;;;;4.82;3.38;;;21.00;97.80;;;;;;5056379;28;20919;-82
2023/06/19 07:10:10;;;;;;;4.55;3.95;;;21.00;97.70;;;;;;5072338;28;20051;-81
2023/06/19 07:12:43;;;;;;;4.43;3.55;;;21.10;97.60;;;;;;5072240;28;20031;-80
2023/06/19 07:15:09;;;;;;;4.53;3.25;;;21.10;97.50;;;;;;5073129;28;20040;-81
2023/06/19 07:17:34;;;;;;;4.00;3.28;;;21.20;97.40;;;;;;5072309;28;20710;-82
2023/06/19 07:20:00;;;;;;;4.45;3.35;;;21.30;97.20;;;;;;5072075;28;20409;-82
2023/06/19 07:22:25;;;;;;;5.47;3.90;;;21.40;97.10;;;;;;5069859;28;20118;-82
2023/06/19 07:24:51;;;;;;;5.70;3.75;;;21.40;96.70;;;;;;5071692;28;20060;-81
2023/06/19 07:27:17;;;;;;;5.90;4.00;;;21.50;96.30;;;;;;5054767;28;22320;-79
2023/06/19 07:29:44;;;;;;;5.07;3.50;;;21.50;96.10;;;;;;5071831;28;20047;-77
2023/06/19 07:32:10;;;;;;;4.30;3.42;;;21.50;95.90;;;;;;5073676;28;20548;-77
2023/06/19 07:34:36;;;;;;;5.05;3.90;;;21.70;95.70;;;;;;5072104;28;20032;-77
2023/06/19 07:37:01;;;;;;;5.22;3.80;;;21.80;95.50;;;;;;5056113;28;20398;-77
2023/06/19 07:39:27;;;;;;;4.35;3.45;;;22.00;95.20;;;;;;5071488;28;20020;-77
2023/06/19 07:41:52;;;;;;;5.28;4.15;;;22.20;95.00;;;;;;5070817;28;20021;-79
2023/06/19 07:44:20;;;;;;;6.63;3.70;;;22.20;94.60;;;;;;5061339;28;20403;-79
2023/06/19 07:46:46;;;;;;;4.97;3.92;;;22.30;94.50;;;;;;5073182;28;20366;-79
2023/06/19 07:49:12;;;;;;;6.72;5.05;;;22.30;94.40;;;;;;5070715;28;20035;-79
2023/06/19 07:51:37;;;;;;;6.65;5.82;;;22.40;94.20;;;;;;5071783;28;20029;-79
2023/06/19 07:54:03;;;;;;;8.05;6.57;;;22.40;94.10;;;;;;5071924;28;20028;-81
2023/06/19 07:56:28;;;;;;;6.35;5.03;;;22.50;93.90;;;;;;5072204;28;20071;-80
2023/06/19 07:58:54;;;;;;;6.55;5.57;;;22.60;93.80;;;;;;5071302;28;20030;-80
2023/06/19 08:01:19;;;;;;;7.75;5.60;;;22.70;93.60;;;;;;5074283;28;20032;-81
2023/06/19 08:03:46;;;;;;;6.30;5.60;;;22.80;93.40;;;;;;5071591;28;20101;-80
2023/06/19 08:06:11;;;;;;;7.20;6.25;;;22.70;93.30;;;;;;5073484;28;20035;-80
2023/06/19 08:08:37;;;;;;;6.90;5.57;;;22.70;93.10;;;;;;5074915;28;20028;-83
2023/06/19 08:11:02;;;;;;;7.75;6.38;;;22.70;93.10;;;;;;5075161;28;20445;-83
2023/06/19 08:13:28;;;;;;;7.25;6.20;;;22.80;92.90;;;;;;5076763;28;20042;-82
2023/06/19 08:15:54;;;;;;;6.70;5.80;;;22.70;92.70;;;;;;5060683;28;20035;-83
2023/06/19 08:18:19;;;;;;;7.40;5.35;;;22.70;92.50;;;;;;5065522;28;20070;-80
2023/06/19 08:20:45;;;;;;;7.40;5.88;;;22.80;92.60;;;;;;5059760;28;20386;-80
2023/06/19 08:23:11;;;;;;;5.68;4.85;;;22.90;92.50;;;;;;5065772;28;20044;-81
2023/06/19 08:25:36;;;;;;;8.18;6.57;;;22.90;92.50;;;;;;5075351;28;20114;-81
2023/06/19 08:28:02;;;;;;;6.55;5.63;;;23.10;92.20;;;;;;5074361;28;20421;-80
2023/06/19 08:30:27;;;;;;;8.15;6.38;;;23.10;92.00;;;;;;5075893;28;20120;-80
2023/06/19 08:32:53;;;;;;;6.25;5.20;;;23.20;91.90;;;;;;5061418;28;20111;-81
2023/06/19 08:35:18;;;;;;;6.78;5.45;;;23.20;91.90;;;;;;5073921;28;20140;-80
2023/06/19 08:37:44;;;;;;;6.50;5.78;;;23.20;91.90;;;;;;5074379;28;20032;-80
2023/06/19 08:40:11;;;;;;;7.70;6.90;;;23.20;91.90;;;;;;5074185;28;20491;-81
2023/06/19 08:42:38;;;;;;;7.55;6.75;;;23.20;91.90;;;;;;5075192;28;20152;-81
2023/06/19 08:45:06;;;;;;;7.53;5.85;;;23.10;91.80;;;;;;5064980;28;20145;-80
2023/06/19 08:47:33;;;;;;;10.70;6.68;;;23.20;91.90;;;;;;5074947;28;21007;-80
2023/06/19 08:49:59;;;;;;;7.70;6.90;;;23.40;91.90;;;;;;5058700;28;20054;-80
2023/06/19 08:52:24;;;;;;;7.30;5.35;;;23.50;91.80;;;;;;5075243;28;20102;-80
2023/06/19 08:54:50;;;;;;;6.95;5.93;;;23.60;91.70;;;;;;5074758;28;20017;-81
2023/06/19 08:57:16;;;;;;;6.97;5.38;;;23.70;91.60;;;;;;5068723;28;20039;-81
2023/06/19 08:59:49;;;;;;;7.00;5.32;;;23.70;91.60;;;;;;5075448;28;20027;-80
2023/06/19 09:02:15;;;;;;;6.55;4.93;;;23.90;91.60;;;;;;5064077;28;20021;-82
2023/06/19 09:04:40;;;;;;;6.93;5.28;;;24.00;91.50;;;;;;5075406;28;20028;-80
2023/06/19 09:07:08;;;;;;;6.97;5.00;;;24.20;91.40;;;;;;5074443;28;20505;-81
2023/06/19 09:09:33;;;;;;;7.22;5.45;;;24.30;91.30;;;;;;5057813;28;20069;-80
2023/06/19 09:12:08;;;;;;;7.88;5.88;;;24.40;91.10;;;;;;5059349;28;20032;-80
2023/06/19 09:14:38;;;;;;;8.90;6.65;;;24.50;91.10;;;;;;5075961;28;20140;-81
2023/06/19 09:17:05;;;;;;;5.50;4.68;;;24.30;91.00;;;;;;5074250;28;20814;-81
2023/06/19 09:19:32;;;;;;;5.85;4.63;;;24.30;91.20;;;;;;5073040;28;20097;-81
2023/06/19 09:22:07;;;;;;;9.25;7.40;;;24.30;91.20;;;;;;5073792;28;20028;-81
2023/06/19 09:24:37;;;;;;;8.60;6.97;;;24.20;91.00;;;;;;5073546;28;20048;-81
2023/06/19 09:27:18;;;;;;;8.40;5.88;;;24.10;91.40;;;;;;5072958;28;20480;-80
2023/06/19 09:29:49;;;;;;;5.03;4.47;;;24.10;91.20;;;;;;5063194;28;20022;-81
2023/06/19 09:32:23;;;;;;;7.60;5.57;;;24.30;91.20;;;;;;5073155;28;20077;-80
2023/06/19 09:34:51;;;;;;;7.32;4.47;;;24.60;91.00;;;;;;5071856;28;20028;-81
2023/06/19 09:37:24;;;;;;;7.53;5.88;;;25.40;90.70;;;;;;5073999;28;20032;-81
2023/06/19 09:39:52;;;;;;;;;;;25.70;90.00;;;;;;5074651;28;20028;-79
2023/06/19 09:42:23;;;;;;;6.47;5.32;;;26.10;89.10;;;;;;5059744;28;19916;-81
2023/06/19 09:44:50;;;;;;;6.00;4.90;;;26.80;88.60;;;;;;5059108;28;20399;-81
2023/06/19 09:47:23;;;;;;;7.03;5.60;;;27.40;87.50;;;;;;5072888;28;20036;-80
2023/06/19 09:49:54;;;;;;;8.32;5.60;;;27.70;86.20;;;;;;5072725;28;20024;-80
2023/06/19 09:52:22;;;;;;;6.63;5.20;;;28.00;85.70;;;;;;5073978;28;20036;-79
2023/06/19 09:54:49;;;;;;;6.90;5.35;;;28.40;85.20;;;;;;5062169;28;20039;-82
2023/06/19 09:57:15;;;;;;;5.70;3.70;;;28.40;84.80;;;;;;5072904;28;20501;-82
2023/06/19 09:59:42;;;;;;;5.15;4.10;;;28.80;85.10;;;;;;5074980;28;20016;-80
2023/06/19 10:02:09;;;;;;;5.97;4.93;;;29.40;84.30;;;;;;5057057;28;20103;-81
2023/06/19 10:04:50;;;;;;;7.30;6.28;;;29.70;82.30;;;;;;5063780;28;20052;-79
2023/06/19 10:07:26;;;;;;;6.82;5.60;;;29.80;81.50;;;;;;5074257;28;20047;-79
2023/06/19 10:10:06;;;;;;;7.45;5.60;;;29.90;81.10;;;;;;5073259;28;20024;-79
2023/06/19 10:12:46;;;;;;;5.40;4.28;;;30.10;80.20;;;;;;5074698;28;20106;-79
2023/06/19 10:15:22;;;;;;;5.60;4.70;;;30.30;80.10;;;;;;5059892;28;20043;-80
2023/06/19 10:17:48;;;;;;;5.95;5.32;;;30.80;79.80;;;;;;5063890;28;20028;-80
2023/06/19 10:20:40;;;;;;;5.05;4.43;;;31.10;79.10;;;;;;5074036;28;20048;-80
2023/06/19 10:23:12;;;;;;;8.68;6.53;;;31.10;78.90;;;;;;5074172;28;20040;-83
2023/06/19 10:25:40;;;;;;;6.10;5.38;;;30.90;77.50;;;;;;5058758;28;20020;-84
2023/06/19 10:28:26;;;;;;;6.30;4.75;;;30.30;78.60;;;;;;5075276;28;20565;-86
2023/06/19 10:31:01;;;;;;;9.32;6.63;;;30.20;78.70;;;;;;5073939;28;20121;-84
2023/06/19 10:33:28;;;;;;;6.00;5.40;;;30.30;77.80;;;;;;5073883;28;20153;-86
2023/06/19 10:35:54;;;;;;;6.38;5.10;;;30.00;78.20;;;;;;5062798;28;20082;-84
2023/06/19 10:38:20;;;;;;;6.55;5.78;;;30.00;78.70;;;;;;5062620;28;20127;-84
2023/06/19 10:40:46;;;;;;;7.80;5.13;;;30.40;78.50;;;;;;5075648;28;20028;-84
2023/06/19 10:43:19;;;;;;;5.95;5.35;;;31.00;77.80;;;;;;5075193;28;20032;-85
2023/06/19 10:45:45;;;;;;;6.75;5.80;;;31.40;77.00;;;;;;5058381;28;20024;-86
2023/06/19 10:48:11;;;;;;;6.85;5.00;;;31.90;76.30;;;;;;5061479;28;20524;-86
2023/06/19 10:50:41;;;;;;;7.60;6.07;;;32.30;75.80;;;;;;5072495;28;20036;-84
2023/06/19 10:53:07;;;;;;;7.45;6.32;;;32.50;74.90;;;;;;5049938;28;20111;-87
2023/06/19 10:55:33;;;;;;;5.60;4.78;;;32.50;74.50;;;;;;5072295;28;20035;-90
2023/06/19 10:57:58;;;;;;;6.47;5.72;;;32.30;75.00;;;;;;5059851;28;20035;-84
2023/06/19 11:00:29;;;;;;;5.85;4.95;;;32.00;74.70;;;;;;5070096;28;20098;-83
2023/06/19 11:02:56;;;;;;;4.60;4.10;;;31.70;75.30;;;;;;5054163;28;20807;-84
2023/06/19 11:05:23;;;;;;;5.20;4.70;;;31.60;75.60;;;;;;5059390;28;20024;-84
2023/06/19 11:07:57;;;;;;;6.43;5.72;;;31.40;75.70;;;;;;5053291;28;20039;-83
2023/06/19 11:10:25;;;;;;;6.50;5.03;;;31.20;75.40;;;;;;5061790;28;20027;-83
2023/06/19 11:12:57;;;;;;;6.78;6.07;;;31.00;75.70;;;;;;5061591;28;20391;-85
2023/06/19 11:15:33;;;;;;;;;;;31.00;75.50;;;;;;5055640;28;20034;-85
2023/06/19 11:18:00;;;;;;;6.97;5.45;;;31.00;74.30;;;;;;5060077;28;19912;-85
2023/06/19 11:20:26;;;;;;;6.45;5.57;;;31.00;74.70;;;;;;5062128;28;20024;-85
2023/06/19 11:22:56;;;;;;;8.85;7.40;;;31.20;74.50;;;;;;5072574;28;20046;-83
2023/06/19 11:25:22;;;;;;;8.85;5.95;;;31.30;73.80;;;;;;5073604;28;20047;-84
2023/06/19 11:27:51;;;;;;;6.65;5.90;;;31.10;74.10;;;;;;5061103;28;20105;-84
2023/06/19 11:30:20;;;;;;;6.20;5.57;;;31.10;74.40;;;;;;5056937;28;20028;-84
2023/06/19 11:32:48;;;;;;;5.43;4.82;;;31.10;74.30;;;;;;5059884;28;20024;-83
2023/06/19 11:35:16;;;;;;;6.22;5.20;;;31.10;74.60;;;;;;5071574;28;20390;-83
2023/06/19 11:37:46;;;;;;;6.53;5.80;;;31.30;74.40;;;;;;5072557;28;20028;-83
2023/06/19 11:40:12;;;;;;;8.10;5.80;;;31.60;73.70;;;;;;5073392;28;20467;-84
2023/06/19 11:42:49;;;;;;;7.45;6.22;;;31.90;73.00;;;;;;5064729;28;20028;-83
2023/06/19 11:45:15;;;;;;;5.75;5.15;;;32.10;72.90;;;;;;5059940;28;20063;-82
2023/06/19 11:47:40;;;;;;;6.97;6.15;;;32.30;72.90;;;;;;5059288;28;20119;-82
2023/06/19 11:50:07;;;;;;;7.18;6.47;;;32.70;72.00;;;;;;5076869;28;20032;-84
2023/06/19 11:52:33;;;;;;;7.53;6.05;;;33.00;71.80;;;;;;5067763;28;20046;-83
2023/06/19 11:54:58;;;;;;;8.45;6.85;;;32.80;71.10;;;;;;5075951;28;20479;-83
2023/06/19 11:57:26;;;;;;;6.97;5.70;;;32.50;70.30;;;;;;5076101;28;20025;-84
2023/06/19 11:59:51;;;;;;;6.28;5.13;;;32.40;71.10;;;;;;5074955;28;20040;-84
2023/06/19 12:02:17;;;;;;;6.40;5.15;;;32.70;71.00;;;;;;5076626;28;20453;-82
2023/06/19 12:04:43;;;;;;;5.95;4.53;;;33.00;70.80;;;;;;5076280;28;20086;-83
2023/06/19 12:07:08;;;;;;;5.03;4.10;;;33.30;70.80;;;;;;5076508;28;20028;-82
2023/06/19 12:09:34;;;;;;;5.15;4.60;;;33.70;70.80;;;;;;5076774;28;20128;-83
2023/06/19 12:12:00;;;;;;;5.38;4.18;;;33.60;69.30;;;;;;5064379;28;20028;-84
2023/06/19 12:14:26;;;;;;;5.35;4.35;;;33.60;69.50;;;;;;5074571;28;20029;-82
2023/06/19 12:16:52;;;;;;;4.28;3.65;;;33.60;69.30;;;;;;5075143;28;20040;-83
2023/06/19 12:19:18;;;;;;;6.25;4.15;;;33.90;69.00;;;;;;5075869;28;20636;-84
2023/06/19 12:21:43;;;;;;;5.45;4.25;;;34.10;68.00;;;;;;5077997;28;20028;-83
2023/06/19 12:24:09;;;;;;;6.47;4.88;;;34.10;67.60;;;;;;5060425;28;20044;-82
2023/06/19 12:26:39;;;;;;;6.07;4.60;;;34.20;67.80;;;;;;5075157;28;20526;-83
2023/06/19 12:29:06;;;;;;;5.53;3.78;;;34.40;67.30;;;;;;5075812;28;20021;-82
2023/06/19 12:31:33;;;;;;;5.38;4.30;;;34.70;67.30;;;;;;5058739;28;20212;-84
2023/06/19 12:34:01;;;;;;;6.53;3.97;;;35.00;67.10;;;;;;5074820;28;20016;-83
2023/06/19 12:36:26;;;;;;;5.40;4.40;;;35.30;66.80;;;;;;5074983;28;20176;-82
2023/06/19 12:38:53;;;;;;;5.60;5.00;;;35.30;66.50;;;;;;5063272;28;20023;-82
2023/06/19 12:41:19;;;;;;;5.53;4.50;;;35.40;66.70;;;;;;5062192;28;20024;-83
2023/06/19 12:43:46;;;;;;;4.93;4.10;;;35.00;66.50;;;;;;5056641;28;20028;-83
2023/06/19 12:46:11;;;;;;;4.50;3.78;;;34.80;66.90;;;;;;5063120;28;20550;-83